createdAt,value
2018-07-20T00:00:06.968Z,17.00
2018-07-20T00:02:36.099Z,17.10
2018-07-20T00:05:06.307Z,17.30
2018-07-20T00:07:35.703Z,17.40
2018-07-20T00:10:04.830Z,17.60
2018-07-20T00:12:34.050Z,17.70
2018-07-20T00:15:03.268Z,17.70
2018-07-20T00:17:32.782Z,17.60
2018-07-20T00:20:02.932Z,17.50
2018-07-20T00:22:32.193Z,17.40
2018-07-20T00:25:00.867Z,17.30
2018-07-20T00:27:29.970Z,17.20
2018-07-20T00:29:59.049Z,17.20
2018-07-20T00:32:28.146Z,17.30
2018-07-20T00:34:57.311Z,17.40
2018-07-20T00:37:26.402Z,17.30
2018-07-20T00:39:55.494Z,17.40
2018-07-20T00:42:24.605Z,17.50
2018-07-20T00:44:53.806Z,17.50
2018-07-20T00:47:22.942Z,17.90
2018-07-20T00:49:52.054Z,18.00
2018-07-20T00:52:21.524Z,17.90
2018-07-20T00:54:50.617Z,17.60
2018-07-20T00:57:19.841Z,17.40
2018-07-20T00:59:48.926Z,17.30
2018-07-20T01:02:18.757Z,17.40
2018-07-20T01:04:47.822Z,17.40
2018-07-20T01:07:17.054Z,17.60
2018-07-20T01:09:46.201Z,17.60
2018-07-20T01:12:15.346Z,17.40
2018-07-20T01:14:44.491Z,17.30
2018-07-20T01:17:13.578Z,17.20
2018-07-20T01:19:43.164Z,17.10
2018-07-20T01:22:12.295Z,17.30
2018-07-20T01:24:42.615Z,17.20
2018-07-20T01:27:12.282Z,17.20
2018-07-20T01:29:41.427Z,17.00
2018-07-20T01:32:10.631Z,16.70
2018-07-20T01:34:39.723Z,16.60
2018-07-20T01:37:09.562Z,16.50
2018-07-20T01:39:38.658Z,16.60
2018-07-20T01:42:07.786Z,16.60
2018-07-20T01:44:36.870Z,16.40
2018-07-20T01:47:05.991Z,16.20
2018-07-20T01:49:35.297Z,16.10
2018-07-20T01:52:04.422Z,16.10
2018-07-20T01:54:33.507Z,16.10
2018-07-20T01:57:02.594Z,16.00
2018-07-20T01:59:31.693Z,15.80
2018-07-20T02:02:01.309Z,15.70
2018-07-20T02:04:30.385Z,15.60
2018-07-20T02:06:59.526Z,15.60
2018-07-20T02:09:28.637Z,15.60
2018-07-20T02:11:57.741Z,15.60
2018-07-20T02:14:26.850Z,15.70
2018-07-20T02:16:56.389Z,15.70
2018-07-20T02:19:25.594Z,15.70
2018-07-20T02:21:54.713Z,15.70
2018-07-20T02:24:23.801Z,15.70
2018-07-20T02:26:52.606Z,15.60
2018-07-20T02:29:22.239Z,15.50
2018-07-20T02:31:51.326Z,15.40
2018-07-20T02:34:20.458Z,15.40
2018-07-20T02:36:49.577Z,15.40
2018-07-20T02:39:18.682Z,15.40
2018-07-20T02:41:47.818Z,15.40
2018-07-20T02:46:45.812Z,16.00
2018-07-20T02:49:15.003Z,16.00
2018-07-20T02:51:44.810Z,15.70
2018-07-20T02:54:14.152Z,15.40
2018-07-20T02:56:43.669Z,15.30
2018-07-20T02:59:13.043Z,15.10
2018-07-20T03:01:42.584Z,15.00
2018-07-20T03:04:11.839Z,14.90
2018-07-20T03:06:40.967Z,14.90
2018-07-20T03:09:12.106Z,14.80
2018-07-20T03:11:41.598Z,14.80
2018-07-20T03:14:10.855Z,14.70
2018-07-20T03:16:40.895Z,14.80
2018-07-20T03:21:39.005Z,14.70
2018-07-20T03:24:08.497Z,14.70
2018-07-20T03:26:37.625Z,15.00
2018-07-20T03:29:07.093Z,15.10
2018-07-20T03:31:35.832Z,15.20
2018-07-20T03:34:04.989Z,15.30
2018-07-20T03:36:34.097Z,15.20
2018-07-20T03:39:03.558Z,15.10
2018-07-20T03:41:32.666Z,15.20
2018-07-20T03:44:01.754Z,15.10
2018-07-20T03:46:31.007Z,15.30
2018-07-20T03:49:00.166Z,15.40
2018-07-20T03:51:29.245Z,15.50
2018-07-20T03:53:58.877Z,15.70
2018-07-20T03:56:28.022Z,15.90
2018-07-20T03:58:57.114Z,16.10
2018-07-20T04:01:26.221Z,16.20
2018-07-20T04:03:55.318Z,16.20
2018-07-20T04:06:24.410Z,16.10
2018-07-20T04:08:54.285Z,16.20
2018-07-20T04:11:24.702Z,16.50
2018-07-20T04:13:54.001Z,16.50
2018-07-20T04:16:23.116Z,16.60
2018-07-20T04:18:52.237Z,16.60
2018-07-20T04:21:21.349Z,17.00
2018-07-20T04:23:50.454Z,17.10
2018-07-20T04:26:19.609Z,17.00
2018-07-20T04:28:48.725Z,16.90
2018-07-20T04:31:19.935Z,17.10
2018-07-20T04:33:49.297Z,17.30
2018-07-20T04:36:18.470Z,17.10
2018-07-20T04:38:47.558Z,17.50
2018-07-20T04:41:16.667Z,18.00
2018-07-20T04:43:45.783Z,18.40
2018-07-20T04:46:14.885Z,18.60
2018-07-20T04:48:44.011Z,19.00
2018-07-20T04:51:13.154Z,19.50
2018-07-20T04:53:42.314Z,20.00
2018-07-20T04:56:12.127Z,20.70
2018-07-20T04:58:42.389Z,21.40
2018-07-20T05:01:11.974Z,22.50
2018-07-20T05:03:41.770Z,23.30
2018-07-20T05:06:10.874Z,23.80
2018-07-20T05:08:39.983Z,24.30
2018-07-20T05:11:09.786Z,24.80
2018-07-20T05:13:38.905Z,25.00
2018-07-20T05:16:08.918Z,25.10
2018-07-20T05:18:38.229Z,25.60
2018-07-20T05:21:08.862Z,24.30
2018-07-20T05:23:38.389Z,23.90
2018-07-20T05:26:07.729Z,23.80
2018-07-20T05:28:36.906Z,23.80
2018-07-20T05:31:06.161Z,24.00
2018-07-20T05:33:35.239Z,24.40
2018-07-20T05:36:04.403Z,24.10
2018-07-20T05:38:34.554Z,23.20
2018-07-20T05:41:03.679Z,22.40
2018-07-20T05:43:32.801Z,21.70
2018-07-20T05:46:01.913Z,21.10
2018-07-20T05:48:31.035Z,20.80
2018-07-20T05:51:00.174Z,20.50
2018-07-20T05:53:29.534Z,20.30
2018-07-20T05:55:58.997Z,20.20
2018-07-20T05:58:28.111Z,20.00
2018-07-20T06:00:57.409Z,20.30
2018-07-20T06:03:26.538Z,21.10
2018-07-20T06:05:55.684Z,22.30
2018-07-20T06:08:24.785Z,23.20
2018-07-20T06:10:54.094Z,23.60
2018-07-20T06:13:23.225Z,24.90
2018-07-20T06:15:52.355Z,24.90
2018-07-20T06:18:21.476Z,24.30
2018-07-20T06:20:51.165Z,23.70
2018-07-20T06:23:20.397Z,23.40
2018-07-20T06:25:49.574Z,23.60
2018-07-20T06:28:18.707Z,23.70
2018-07-20T06:30:47.809Z,24.60
2018-07-20T06:33:16.974Z,24.70
2018-07-20T06:35:46.247Z,24.80
2018-07-20T06:38:15.445Z,25.30
2018-07-20T06:40:44.618Z,26.00
2018-07-20T06:43:14.058Z,26.50
2018-07-20T06:45:43.182Z,26.20
2018-07-20T06:48:12.701Z,26.80
2018-07-20T06:50:41.822Z,28.30
2018-07-20T06:53:10.936Z,29.00
2018-07-20T06:55:40.085Z,28.50
2018-07-20T06:58:09.989Z,27.40
2018-07-20T07:00:39.086Z,26.50
2018-07-20T07:03:08.266Z,26.30
2018-07-20T07:05:37.821Z,25.80
2018-07-20T07:08:06.925Z,25.40
2018-07-20T07:10:36.826Z,24.60
2018-07-20T07:13:06.250Z,24.30
2018-07-20T07:15:36.034Z,24.40
2018-07-20T07:18:05.986Z,24.80
2018-07-20T07:20:35.974Z,25.60
2018-07-20T07:23:05.014Z,25.80
2018-07-20T07:25:34.117Z,27.10
2018-07-20T07:28:03.246Z,27.70
2018-07-20T07:30:33.123Z,28.10
2018-07-20T07:33:02.247Z,28.70
2018-07-20T07:35:31.377Z,28.70
2018-07-20T07:38:01.232Z,29.10
2018-07-20T07:40:30.329Z,29.20
2018-07-20T07:42:59.470Z,28.00
2018-07-20T07:45:28.561Z,28.40
2018-07-20T07:47:57.657Z,30.00
2018-07-20T07:50:26.777Z,31.60
2018-07-20T07:52:55.895Z,32.70
2018-07-20T07:55:25.010Z,33.60
2018-07-20T07:57:54.799Z,34.50
2018-07-20T08:00:23.917Z,34.00
2018-07-20T08:02:53.042Z,34.10
2018-07-20T08:05:22.959Z,32.90
2018-07-20T08:07:52.079Z,31.80
2018-07-20T08:10:21.364Z,32.30
2018-07-20T08:12:50.521Z,33.00
2018-07-20T08:15:20.076Z,33.60
2018-07-20T08:17:49.168Z,33.00
2018-07-20T08:20:18.290Z,32.80
2018-07-20T08:22:47.391Z,33.10
2018-07-20T08:25:16.485Z,33.80
2018-07-20T08:27:45.630Z,34.70
2018-07-20T08:30:14.718Z,33.60
2018-07-20T08:32:43.802Z,33.50
2018-07-20T08:35:13.177Z,32.80
2018-07-20T08:37:42.297Z,32.70
2018-07-20T08:40:11.974Z,33.60
2018-07-20T08:42:41.097Z,33.80
2018-07-20T08:45:09.837Z,34.80
2018-07-20T08:47:39.126Z,35.10
2018-07-20T08:50:08.466Z,34.50
2018-07-20T08:52:38.082Z,35.00
2018-07-20T08:55:06.821Z,35.00
2018-07-20T08:57:35.953Z,35.90
2018-07-20T09:00:06.947Z,36.80
2018-07-20T09:02:36.018Z,36.30
2018-07-20T09:05:05.549Z,36.70
2018-07-20T09:07:34.686Z,36.70
2018-07-20T09:10:03.843Z,38.10
2018-07-20T09:12:33.061Z,38.50
2018-07-20T09:15:02.273Z,36.30
2018-07-20T09:17:31.584Z,36.40
2018-07-20T09:20:01.475Z,37.20
2018-07-20T09:22:30.674Z,38.20
2018-07-20T09:24:59.775Z,36.40
2018-07-20T09:27:28.929Z,36.70
2018-07-20T09:29:58.014Z,35.20
2018-07-20T09:32:27.089Z,35.60
2018-07-20T09:34:56.219Z,36.40
2018-07-20T09:37:25.333Z,37.50
2018-07-20T09:39:54.977Z,37.30
2018-07-20T09:42:24.369Z,36.80
2018-07-20T09:44:53.917Z,35.50
2018-07-20T09:47:22.734Z,36.50
2018-07-20T09:49:52.254Z,36.00
2018-07-20T09:52:21.365Z,37.00
2018-07-20T09:54:50.497Z,37.90
2018-07-20T09:57:19.593Z,38.10
2018-07-20T09:59:48.814Z,37.80
2018-07-20T10:02:18.664Z,37.00
2018-07-20T10:04:47.749Z,38.00
2018-07-20T10:07:16.849Z,36.90
2018-07-20T10:09:45.957Z,35.80
2018-07-20T10:12:15.061Z,37.30
2018-07-20T10:14:44.209Z,37.90
2018-07-20T10:17:14.722Z,37.50
2018-07-20T10:19:43.838Z,36.90
2018-07-20T10:22:12.976Z,35.90
2018-07-20T10:24:42.133Z,36.40
2018-07-20T10:29:39.771Z,35.90
2018-07-20T10:32:08.930Z,37.30
2018-07-20T10:34:38.133Z,37.60
2018-07-20T10:37:07.577Z,38.60
2018-07-20T10:39:36.701Z,38.90
2018-07-20T10:42:06.737Z,38.10
2018-07-20T10:44:36.609Z,36.70
2018-07-20T10:47:05.906Z,35.40
2018-07-20T10:49:36.914Z,34.70
2018-07-20T10:52:06.151Z,34.70
2018-07-20T10:54:35.221Z,35.50
2018-07-20T10:57:05.094Z,34.40
2018-07-20T10:59:33.745Z,35.50
2018-07-20T11:02:03.237Z,36.10
2018-07-20T11:04:32.353Z,35.20
2018-07-20T11:07:01.450Z,36.40
2018-07-20T11:09:30.706Z,37.30
2018-07-20T11:11:59.820Z,37.90
2018-07-20T11:14:28.905Z,34.70
2018-07-20T11:16:58.002Z,36.40
2018-07-20T11:19:27.129Z,37.10
2018-07-20T11:21:56.254Z,38.20
2018-07-20T11:24:25.403Z,38.50
2018-07-20T11:26:54.553Z,37.20
2018-07-20T11:29:23.647Z,37.90
2018-07-20T11:31:53.677Z,38.30
2018-07-20T11:34:22.829Z,38.50
2018-07-20T11:36:51.950Z,38.50
2018-07-20T11:39:21.598Z,38.20
2018-07-20T11:41:50.775Z,37.80
2018-07-20T11:44:21.133Z,38.40
2018-07-20T11:46:50.300Z,38.00
2018-07-20T11:49:19.514Z,36.50
2018-07-20T11:51:48.306Z,35.70
2018-07-20T11:54:17.479Z,36.80
2018-07-20T11:56:46.554Z,38.50
2018-07-20T11:59:16.565Z,37.50
2018-07-20T12:01:45.945Z,38.10
2018-07-20T12:04:15.057Z,39.00
2018-07-20T12:06:44.183Z,37.70
2018-07-20T12:09:13.885Z,38.50
2018-07-20T12:11:43.044Z,37.80
2018-07-20T12:14:12.142Z,37.20
2018-07-20T12:16:41.257Z,36.40
2018-07-20T12:19:11.205Z,35.90
2018-07-20T12:21:40.301Z,34.70
2018-07-20T12:24:09.434Z,35.40
2018-07-20T12:26:38.547Z,35.90
2018-07-20T12:29:08.115Z,36.80
2018-07-20T12:31:37.209Z,37.00
2018-07-20T12:34:06.593Z,37.20
2018-07-20T12:36:35.725Z,38.80
2018-07-20T12:39:07.984Z,36.90
2018-07-20T12:41:37.097Z,37.50
2018-07-20T12:44:06.198Z,37.00
2018-07-20T12:46:35.363Z,37.30
2018-07-20T12:49:04.429Z,39.50
2018-07-20T12:51:33.577Z,37.10
2018-07-20T12:54:02.741Z,37.50
2018-07-20T12:56:31.821Z,37.40
2018-07-20T12:59:01.718Z,38.60
2018-07-20T13:01:30.833Z,38.20
2018-07-20T13:03:59.926Z,37.70
2018-07-20T13:06:29.349Z,37.40
2018-07-20T13:08:59.101Z,38.30
2018-07-20T13:11:28.214Z,39.10
2018-07-20T13:13:57.027Z,35.90
2018-07-20T13:16:26.159Z,34.70
2018-07-20T13:18:55.301Z,34.80
2018-07-20T13:21:24.409Z,34.30
2018-07-20T13:23:53.511Z,33.10
2018-07-20T13:26:22.622Z,33.50
2018-07-20T13:28:51.705Z,34.40
2018-07-20T13:31:21.545Z,35.20
2018-07-20T13:33:51.037Z,36.70
2018-07-20T13:36:20.546Z,38.20
2018-07-20T13:38:50.769Z,38.30
2018-07-20T13:41:20.311Z,37.90
2018-07-20T13:43:49.433Z,38.60
2018-07-20T13:46:18.549Z,38.50
2018-07-20T13:48:47.689Z,38.00
2018-07-20T13:51:16.834Z,37.40
2018-07-20T13:53:45.974Z,37.60
2018-07-20T13:56:15.822Z,37.50
2018-07-20T13:58:44.926Z,36.40
2018-07-20T14:01:14.097Z,36.50
2018-07-20T14:06:12.936Z,37.90
2018-07-20T14:08:42.084Z,38.60
2018-07-20T14:11:11.189Z,39.00
2018-07-20T14:13:40.293Z,38.80
2018-07-20T14:16:09.434Z,38.10
2018-07-20T14:18:38.538Z,38.00
2018-07-20T14:21:07.669Z,37.80
2018-07-20T14:23:37.238Z,36.90
2018-07-20T14:26:06.552Z,35.60
2018-07-20T14:28:35.701Z,35.10
2018-07-20T14:31:04.825Z,34.10
2018-07-20T14:33:33.922Z,32.90
2018-07-20T14:36:03.055Z,33.30
2018-07-20T14:38:32.193Z,32.90
2018-07-20T14:41:01.867Z,33.00
2018-07-20T14:43:30.969Z,32.90
2018-07-20T14:46:00.127Z,32.80
2018-07-20T14:48:29.229Z,32.50
2018-07-20T14:50:58.358Z,32.70
2018-07-20T14:53:27.466Z,33.00
2018-07-20T14:55:56.737Z,32.60
2018-07-20T14:58:25.853Z,32.90
2018-07-20T15:00:55.005Z,32.20
2018-07-20T15:03:24.134Z,31.80
2018-07-20T15:05:53.807Z,31.60
2018-07-20T15:08:23.383Z,31.10
2018-07-20T15:10:52.742Z,31.20
2018-07-20T15:13:24.043Z,31.70
2018-07-20T15:15:53.427Z,31.60
2018-07-20T15:18:23.390Z,31.40
2018-07-20T15:20:52.690Z,31.40
2018-07-20T15:23:22.481Z,31.40
2018-07-20T15:25:51.200Z,31.20
2018-07-20T15:28:20.553Z,30.60
2018-07-20T15:30:55.454Z,30.60
2018-07-20T15:33:26.246Z,30.10
2018-07-20T15:35:55.459Z,29.90
2018-07-20T15:38:24.665Z,29.80
2018-07-20T15:40:53.782Z,29.50
2018-07-20T15:43:23.265Z,29.30
2018-07-20T15:46:05.699Z,29.20
2018-07-20T15:48:21.478Z,29.00
2018-07-20T15:50:50.565Z,27.90
2018-07-20T15:53:46.568Z,27.40
2018-07-20T15:55:48.827Z,26.50
2018-07-20T15:58:17.943Z,25.60
2018-07-20T16:00:47.681Z,24.10
2018-07-20T16:03:16.877Z,23.20
2018-07-20T16:05:46.050Z,21.90
2018-07-20T16:08:15.809Z,21.30
2018-07-20T16:10:45.105Z,21.00
2018-07-20T16:15:43.442Z,20.80
2018-07-20T16:18:12.641Z,20.70
2018-07-20T16:20:44.678Z,20.70
2018-07-20T16:23:14.593Z,20.60
2018-07-20T16:25:43.776Z,20.60
2018-07-20T16:28:13.993Z,20.70
2018-07-20T16:30:43.253Z,20.70
2018-07-20T16:33:12.027Z,20.80
2018-07-20T16:35:41.745Z,21.00
2018-07-20T16:38:12.149Z,21.10
2018-07-20T16:40:42.060Z,21.20
2018-07-20T16:43:10.946Z,21.50
2018-07-20T16:45:40.654Z,22.00
2018-07-20T16:50:41.762Z,22.40
2018-07-20T16:53:11.893Z,22.10
2018-07-20T16:55:40.774Z,22.00
2018-07-20T16:58:09.940Z,22.10
2018-07-20T17:00:39.089Z,22.10
2018-07-20T17:03:08.229Z,21.90
2018-07-20T17:05:37.662Z,21.90
2018-07-20T17:08:07.462Z,21.80
2018-07-20T17:10:37.361Z,21.70
2018-07-20T17:13:06.725Z,21.60
2018-07-20T17:15:35.713Z,21.60
2018-07-20T17:18:05.146Z,21.50
2018-07-20T17:20:34.559Z,21.50
2018-07-20T17:23:04.066Z,21.60
2018-07-20T17:25:33.577Z,21.60
2018-07-20T17:28:03.272Z,21.60
2018-07-20T17:30:33.540Z,21.60
2018-07-20T17:33:03.242Z,21.50
2018-07-20T17:35:35.289Z,21.20
2018-07-20T17:38:04.421Z,21.20
2018-07-20T17:40:33.689Z,21.40
2018-07-20T17:43:03.132Z,21.20
2018-07-20T17:45:32.216Z,20.90
2018-07-20T17:48:01.313Z,20.90
2018-07-20T17:50:32.357Z,20.90
2018-07-20T17:53:01.657Z,20.80
2018-07-20T17:55:30.814Z,20.60
2018-07-20T17:58:00.302Z,20.40
2018-07-20T18:00:30.274Z,20.20
2018-07-20T18:03:00.133Z,20.30
2018-07-20T18:05:31.812Z,20.50
2018-07-20T18:08:01.600Z,20.80
2018-07-20T18:10:30.686Z,20.60
2018-07-20T18:12:59.769Z,20.40
2018-07-20T18:15:29.258Z,20.40
2018-07-20T18:17:59.455Z,20.50
2018-07-20T18:20:28.585Z,20.80
2018-07-20T18:22:57.734Z,20.80
2018-07-20T18:25:27.269Z,20.80
2018-07-20T18:27:56.407Z,20.90
2018-07-20T18:30:25.508Z,20.50
2018-07-20T18:32:54.653Z,20.10
2018-07-20T18:35:24.047Z,20.30
2018-07-20T18:37:53.693Z,20.60
2018-07-20T18:40:22.978Z,20.50
2018-07-20T18:42:53.181Z,20.40
2018-07-20T18:45:22.480Z,19.90
2018-07-20T18:47:51.798Z,19.70
2018-07-20T18:50:21.642Z,19.60
2018-07-20T18:52:51.551Z,19.50
2018-07-20T18:55:21.377Z,19.60
2018-07-20T18:57:50.521Z,19.50
2018-07-20T19:00:19.661Z,19.60
2018-07-20T19:02:49.477Z,19.30
2018-07-20T19:05:18.584Z,19.10
2018-07-20T19:07:47.694Z,19.10
2018-07-20T19:10:16.793Z,18.90
2018-07-20T19:12:45.896Z,18.70
2018-07-20T19:15:15.058Z,18.60
2018-07-20T19:17:44.896Z,18.60
2018-07-20T19:20:14.165Z,18.50
2018-07-20T19:22:43.762Z,18.80
2018-07-20T19:25:12.922Z,18.70
2018-07-20T19:27:42.077Z,18.50
2018-07-20T19:30:11.246Z,18.40
2018-07-20T19:32:41.178Z,18.50
2018-07-20T19:35:10.248Z,18.90
2018-07-20T19:37:40.297Z,18.90
2018-07-20T19:40:09.453Z,18.80
2018-07-20T19:42:38.563Z,18.70
2018-07-20T19:45:08.329Z,18.60
2018-07-20T19:47:37.743Z,18.50
2018-07-20T19:50:08.225Z,18.50
2018-07-20T19:52:37.471Z,18.40
2018-07-20T19:55:07.065Z,18.70
2018-07-20T19:57:36.233Z,18.70
2018-07-20T20:00:08.550Z,19.00
2018-07-20T20:02:38.981Z,19.00
2018-07-20T20:05:08.229Z,18.70
2018-07-20T20:07:38.595Z,18.30
2018-07-20T20:10:08.314Z,18.20
2018-07-20T20:12:37.578Z,18.10
2018-07-20T20:15:08.302Z,18.00
2018-07-20T20:17:37.657Z,17.90
2018-07-20T20:20:11.777Z,17.80
2018-07-20T20:22:41.501Z,17.80
2018-07-20T20:25:10.863Z,17.90
2018-07-20T20:27:40.688Z,17.90
2018-07-20T20:30:10.078Z,18.10
2018-07-20T20:35:07.997Z,18.00
2018-07-20T20:37:37.398Z,18.00
2018-07-20T20:40:07.633Z,18.00
2018-07-20T20:42:37.086Z,17.90
2018-07-20T20:45:07.630Z,17.90
2018-07-20T20:47:36.853Z,18.10
2018-07-20T20:50:06.266Z,18.30
2018-07-20T20:52:35.766Z,18.50
2018-07-20T20:55:05.113Z,18.70
2018-07-20T20:57:34.591Z,18.80
2018-07-20T21:00:04.859Z,18.70
2018-07-20T21:02:34.821Z,18.70
2018-07-20T21:05:03.979Z,18.70
2018-07-20T21:10:03.991Z,18.40
2018-07-20T21:12:34.641Z,18.50
2018-07-20T21:15:04.281Z,18.50
2018-07-20T21:17:34.202Z,18.60
2018-07-20T21:20:04.960Z,18.50
2018-07-20T21:22:34.210Z,18.40
2018-07-20T21:27:32.190Z,18.30
2018-07-20T21:30:01.335Z,17.90
2018-07-20T21:32:31.480Z,18.00
2018-07-20T21:35:00.640Z,18.20
2018-07-20T21:37:30.134Z,18.30
2018-07-20T21:39:59.366Z,18.30
2018-07-20T21:42:28.526Z,18.20
2018-07-20T21:44:57.626Z,18.10
2018-07-20T21:47:26.741Z,18.10
2018-07-20T21:49:55.850Z,18.10
2018-07-20T21:52:25.601Z,18.10
2018-07-20T21:54:54.877Z,18.10
2018-07-20T21:57:24.809Z,18.20
2018-07-20T21:59:54.632Z,18.30
2018-07-20T22:02:26.720Z,18.30
2018-07-20T22:04:56.005Z,18.30
2018-07-20T22:07:25.175Z,18.20
2018-07-20T22:09:54.325Z,18.30
2018-07-20T22:12:23.433Z,18.10
2018-07-20T22:14:52.802Z,18.10
2018-07-20T22:17:22.001Z,18.00
2018-07-20T22:19:51.229Z,17.90
2018-07-20T22:22:20.357Z,17.90
2018-07-20T22:24:49.585Z,17.60
2018-07-20T22:27:18.722Z,17.40
2018-07-20T22:29:47.856Z,17.50
2018-07-20T22:32:16.979Z,17.50
2018-07-20T22:34:46.282Z,17.40
2018-07-20T22:37:15.405Z,17.30
2018-07-20T22:39:44.878Z,17.20
2018-07-20T22:42:14.269Z,17.00
2018-07-20T22:47:12.204Z,16.80
2018-07-20T22:49:41.333Z,16.70
2018-07-20T22:52:10.534Z,16.80
2018-07-20T22:54:40.530Z,17.10
2018-07-20T22:57:09.677Z,17.10
2018-07-20T22:59:38.835Z,16.90
2018-07-20T23:02:07.970Z,16.90
2018-07-20T23:04:37.224Z,17.10
2018-07-20T23:07:07.194Z,17.30
2018-07-20T23:09:36.389Z,17.50
2018-07-20T23:12:05.531Z,17.50
2018-07-20T23:14:34.743Z,17.70
2018-07-20T23:17:04.033Z,17.70
2018-07-20T23:19:33.131Z,17.70
2018-07-20T23:22:02.262Z,17.60
2018-07-20T23:24:31.387Z,17.20
2018-07-20T23:27:00.642Z,16.90
2018-07-20T23:29:30.390Z,16.70
2018-07-20T23:31:59.614Z,16.70
2018-07-20T23:34:28.758Z,16.70
2018-07-20T23:36:57.876Z,16.50
2018-07-20T23:39:27.385Z,16.40
2018-07-20T23:41:56.507Z,16.40
2018-07-20T23:44:25.665Z,16.30
2018-07-20T23:46:54.774Z,16.30
2018-07-20T23:49:24.655Z,16.20
2018-07-20T23:51:53.778Z,16.40
2018-07-20T23:54:22.945Z,16.70
2018-07-20T23:56:52.789Z,16.90
2018-07-20T23:59:21.954Z,16.70
